Time;durP1;ratioP1;P1;durP2;ratioP2;P2;SDS_P1;SDS_P2;PMS_P1;PMS_P2;Temp;Humidity;BMP_temperature;BMP_pressure;BME280_temperature;BME280_humidity;BME280_pressure;Samples;Min_cycle;Max_cycle;Signal;HPM_P1;HPM_P2
2021/04/30 00:00:00;;;;;;;8.47;7.77;;;9.60;99.90;;;;;;5050653;28;20268;-75
2021/04/30 00:02:26;;;;;;;7.93;7.33;;;9.50;99.90;;;;;;5050370;28;20769;-75
2021/04/30 00:04:52;;;;;;;8.03;7.43;;;9.40;99.90;;;;;;5050609;28;20212;-76
2021/04/30 00:07:19;;;;;;;8.03;7.33;;;9.40;99.90;;;;;;5050649;28;20270;-76
2021/04/30 00:09:45;;;;;;;7.83;7.23;;;9.30;99.90;;;;;;5050530;28;20211;-76
2021/04/30 00:12:11;;;;;;;7.83;7.23;;;9.30;99.90;;;;;;5050813;28;20220;-76
2021/04/30 00:14:37;;;;;;;8.27;7.57;;;9.30;99.90;;;;;;5050495;28;20211;-77
2021/04/30 00:17:04;;;;;;;8.63;7.93;;;9.20;99.90;;;;;;5050376;28;20259;-76
2021/04/30 00:19:30;;;;;;;9.13;8.03;;;9.30;99.90;;;;;;5050391;28;20285;-76
2021/04/30 00:21:56;;;;;;;8.83;8.13;;;9.20;99.90;;;;;;5050390;28;20691;-77
2021/04/30 00:24:23;;;;;;;8.47;7.63;;;9.30;99.90;;;;;;5049556;28;20208;-74
2021/04/30 00:26:49;;;;;;;8.70;8.00;;;9.30;99.90;;;;;;5049948;28;20746;-73
2021/04/30 00:29:15;;;;;;;8.70;8.00;;;9.30;99.90;;;;;;5050214;28;20257;-73
2021/04/30 00:31:42;;;;;;;8.53;7.70;;;9.30;99.90;;;;;;5049852;28;20238;-73
2021/04/30 00:34:08;;;;;;;8.23;7.57;;;9.30;99.90;;;;;;5050103;28;20204;-73
2021/04/30 00:36:35;;;;;;;8.57;7.77;;;9.30;99.90;;;;;;5049681;28;20247;-82
2021/04/30 00:39:02;;;;;;;8.83;8.13;;;9.20;99.90;;;;;;5050070;28;20318;-82
2021/04/30 00:41:29;;;;;;;8.83;8.13;;;9.20;99.90;;;;;;5050038;28;20200;-82
2021/04/30 00:43:57;;;;;;;9.80;8.20;;;9.30;99.90;;;;;;5050047;28;20224;-82
2021/04/30 00:46:23;;;;;;;9.60;8.70;;;9.30;99.90;;;;;;5049936;28;20647;-82
2021/04/30 00:48:50;;;;;;;9.00;8.20;;;9.20;99.90;;;;;;5049982;28;20219;-82
2021/04/30 00:51:16;;;;;;;9.47;8.63;;;9.20;99.90;;;;;;5050003;28;20208;-82
2021/04/30 00:53:42;;;;;;;9.00;8.20;;;9.10;99.90;;;;;;5049392;28;20666;-82
2021/04/30 00:56:08;;;;;;;9.60;8.70;;;9.10;99.90;;;;;;5049530;28;20200;-82
2021/04/30 00:58:35;;;;;;;8.27;7.67;;;9.10;99.90;;;;;;5049866;28;20306;-82
2021/04/30 01:01:02;;;;;;;9.40;8.60;;;9.10;99.90;;;;;;5049647;28;20281;-81
2021/04/30 01:03:28;;;;;;;9.17;8.23;;;9.10;99.90;;;;;;5049231;28;20211;-82
2021/04/30 01:05:54;;;;;;;9.03;8.33;;;9.10;99.90;;;;;;5049692;28;20207;-82
2021/04/30 01:08:21;;;;;;;10.07;9.27;;;9.20;99.90;;;;;;5049444;28;20215;-81
2021/04/30 01:10:47;;;;;;;9.27;8.43;;;9.10;99.90;;;;;;5049352;28;20655;-82
2021/04/30 01:13:13;;;;;;;9.90;9.00;;;9.00;99.90;;;;;;5049624;28;20243;-82
2021/04/30 01:15:41;;;;;;;9.27;8.37;;;9.00;99.90;;;;;;5049431;28;20212;-81
2021/04/30 01:18:07;;;;;;;8.67;8.07;;;9.00;99.90;;;;;;5049020;28;20235;-81
2021/04/30 01:20:34;;;;;;;9.13;8.33;;;9.00;99.90;;;;;;5049249;28;20234;-81
2021/04/30 01:23:01;;;;;;;9.53;8.63;;;9.10;99.90;;;;;;5049326;28;20262;-81
2021/04/30 01:25:31;;;;;;;8.77;8.07;;;9.00;99.90;;;;;;5049513;28;20207;-82
2021/04/30 01:27:58;;;;;;;9.30;8.57;;;9.00;99.90;;;;;;5048891;28;20219;-77
2021/04/30 01:30:27;;;;;;;8.57;7.90;;;9.10;99.90;;;;;;5049318;28;20240;-77
2021/04/30 01:32:54;;;;;;;8.37;7.70;;;9.00;99.90;;;;;;5049075;28;20208;-77
2021/04/30 01:35:21;;;;;;;9.33;8.53;;;9.00;99.90;;;;;;5048527;28;20207;-78
2021/04/30 01:37:49;;;;;;;8.97;8.27;;;8.90;99.90;;;;;;5048838;28;20212;-77
2021/04/30 01:40:19;;;;;;;8.53;7.83;;;9.00;99.90;;;;;;5048956;28;20266;-76
2021/04/30 01:43:01;;;;;;;8.60;7.90;;;9.00;99.90;;;;;;5048721;28;20801;-76
2021/04/30 01:45:29;;;;;;;9.03;8.30;;;8.90;99.90;;;;;;5048605;28;20655;-76
2021/04/30 01:47:55;;;;;;;9.13;8.43;;;8.90;99.90;;;;;;5048998;28;20212;-76
2021/04/30 01:50:21;;;;;;;9.27;8.57;;;8.90;99.90;;;;;;5049007;28;20277;-76
2021/04/30 01:52:48;;;;;;;8.97;8.27;;;8.80;99.90;;;;;;5048142;28;20219;-75
2021/04/30 01:55:14;;;;;;;8.87;8.07;;;8.80;99.90;;;;;;5048300;28;20379;-75
2021/04/30 01:57:45;;;;;;;9.03;8.23;;;8.80;99.90;;;;;;5048530;28;20208;-74
2021/04/30 02:00:20;;;;;;;9.00;8.20;;;8.70;99.90;;;;;;5048446;28;20365;-74
2021/04/30 02:02:47;;;;;;;9.67;8.77;;;8.70;99.90;;;;;;5048385;28;20195;-74
2021/04/30 02:05:13;;;;;;;8.87;8.07;;;8.70;99.90;;;;;;5048321;28;20253;-74
2021/04/30 02:07:40;;;;;;;8.63;7.93;;;8.70;99.90;;;;;;5048352;28;20208;-74
2021/04/30 02:10:11;;;;;;;9.40;8.60;;;8.70;99.90;;;;;;5048202;28;20659;-82
2021/04/30 02:12:37;;;;;;;8.80;8.10;;;8.70;99.90;;;;;;5048755;28;20242;-82
2021/04/30 02:15:06;;;;;;;9.10;8.30;;;8.70;99.90;;;;;;5048392;28;20212;-76
2021/04/30 02:17:32;;;;;;;9.60;8.70;;;8.70;99.90;;;;;;5047840;28;20243;-76
2021/04/30 02:19:58;;;;;;;9.17;8.37;;;8.70;99.90;;;;;;5048250;28;20242;-80
2021/04/30 02:22:24;;;;;;;9.67;8.87;;;8.70;99.90;;;;;;5048292;28;20273;-80
2021/04/30 02:24:50;;;;;;;9.10;8.30;;;8.70;99.90;;;;;;5048214;28;20207;-81
2021/04/30 02:27:16;;;;;;;10.23;9.30;;;8.70;99.90;;;;;;5048644;28;20215;-80
2021/04/30 02:29:42;;;;;;;10.17;9.27;;;8.60;99.90;;;;;;5048455;28;20208;-75
2021/04/30 02:32:09;;;;;;;9.80;8.93;;;8.70;99.90;;;;;;5048074;28;20208;-76
2021/04/30 02:34:36;;;;;;;10.43;9.43;;;8.70;99.90;;;;;;5048039;28;20575;-76
2021/04/30 02:37:02;;;;;;;9.57;8.77;;;8.70;99.90;;;;;;5048265;28;20254;-77
2021/04/30 02:39:28;;;;;;;9.73;8.93;;;8.60;99.90;;;;;;5048231;28;20282;-77
2021/04/30 02:41:54;;;;;;;9.57;8.70;;;8.60;99.90;;;;;;5047812;28;20670;-77
2021/04/30 02:44:20;;;;;;;10.93;9.93;;;8.60;99.90;;;;;;5048220;28;20357;-77
2021/04/30 02:46:46;;;;;;;11.87;9.30;;;8.50;99.90;;;;;;5049002;28;20216;-77
2021/04/30 02:49:15;;;;;;;10.13;9.30;;;8.50;99.90;;;;;;5051967;28;20659;-77
2021/04/30 02:51:41;;;;;;;10.47;9.50;;;8.50;99.90;;;;;;5051894;28;20682;-77
2021/04/30 02:54:08;;;;;;;10.57;9.57;;;8.50;99.90;;;;;;5052130;28;20251;-77
2021/04/30 02:56:35;;;;;;;10.00;9.17;;;8.50;99.90;;;;;;5051529;28;20234;-77
2021/04/30 02:59:04;;;;;;;10.40;9.40;;;8.50;99.90;;;;;;5051752;28;20284;-77
2021/04/30 03:01:30;;;;;;;11.20;10.20;;;8.40;99.90;;;;;;5052030;28;20641;-77
2021/04/30 03:03:56;;;;;;;11.47;10.47;;;8.40;99.90;;;;;;5051829;28;20208;-77
2021/04/30 03:06:23;;;;;;;11.47;10.43;;;8.30;99.90;;;;;;5051596;28;20208;-74
2021/04/30 03:08:52;;;;;;;10.67;9.77;;;8.30;99.90;;;;;;5051529;28;20219;-78
2021/04/30 03:11:19;;;;;;;12.30;11.20;;;8.30;99.90;;;;;;5051938;28;20291;-78
2021/04/30 03:13:46;;;;;;;12.23;11.03;;;8.30;99.90;;;;;;5054811;28;20424;-77
2021/04/30 03:16:12;;;;;;;12.53;11.43;;;8.30;99.90;;;;;;5069727;28;20203;-78
2021/04/30 03:18:38;;;;;;;13.33;11.93;;;8.30;99.90;;;;;;5069364;28;20243;-78
2021/04/30 03:21:05;;;;;;;13.50;12.20;;;8.20;99.90;;;;;;5069973;28;20662;-78
2021/04/30 03:23:32;;;;;;;13.50;12.20;;;8.10;99.90;;;;;;5069716;28;20227;-78
2021/04/30 03:26:00;;;;;;;15.50;14.10;;;8.10;99.90;;;;;;5068894;28;20207;-72
2021/04/30 03:28:26;;;;;;;13.17;11.87;;;8.10;99.90;;;;;;5069097;28;20207;-78
2021/04/30 03:30:52;;;;;;;12.67;11.47;;;8.10;99.90;;;;;;5069235;28;20239;-77
2021/04/30 03:33:18;;;;;;;13.20;11.90;;;8.10;99.90;;;;;;5065733;28;20756;-77
2021/04/30 03:35:44;;;;;;;12.57;11.40;;;8.00;99.90;;;;;;5069125;28;20207;-77
2021/04/30 03:38:10;;;;;;;12.90;11.70;;;8.00;99.90;;;;;;5068949;28;20203;-78
2021/04/30 03:40:37;;;;;;;12.77;11.67;;;7.90;99.90;;;;;;5069037;28;20243;-78
2021/04/30 03:43:03;;;;;;;14.10;12.50;;;7.90;99.90;;;;;;5069044;28;20227;-78
2021/04/30 03:45:29;;;;;;;13.77;12.57;;;7.90;99.90;;;;;;5068777;28;20686;-78
2021/04/30 03:47:56;;;;;;;13.50;12.20;;;7.90;99.90;;;;;;5068724;28;20219;-78
2021/04/30 03:50:22;;;;;;;14.23;12.73;;;8.00;99.90;;;;;;5069024;28;20215;-77
2021/04/30 03:52:48;;;;;;;13.47;12.20;;;8.00;99.90;;;;;;5068671;28;20753;-78
2021/04/30 03:55:15;;;;;;;13.57;12.27;;;7.80;99.90;;;;;;5069098;28;20211;-76
2021/04/30 03:57:42;;;;;;;13.70;11.97;;;7.90;99.90;;;;;;5068646;28;20211;-77
2021/04/30 04:00:09;;;;;;;12.83;11.63;;;7.90;99.90;;;;;;5058661;28;20235;-78
2021/04/30 04:02:35;;;;;;;13.20;12.10;;;8.00;99.90;;;;;;5060073;28;20238;-77
2021/04/30 04:05:01;;;;;;;13.63;12.40;;;8.10;99.90;;;;;;5062594;28;20196;-77
2021/04/30 04:07:28;;;;;;;13.43;12.00;;;8.00;99.90;;;;;;5052523;28;20200;-77
2021/04/30 04:09:54;;;;;;;12.60;11.47;;;8.00;99.90;;;;;;5066099;28;20218;-78
2021/04/30 04:12:20;;;;;;;12.67;11.47;;;8.10;99.90;;;;;;5071787;28;20204;-78
2021/04/30 04:14:47;;;;;;;12.90;11.73;;;8.10;99.90;;;;;;5076863;28;20196;-78
2021/04/30 04:17:15;;;;;;;12.87;11.63;;;8.10;99.90;;;;;;5078795;28;20243;-77
2021/04/30 04:19:41;;;;;;;12.57;11.47;;;8.10;99.90;;;;;;5079577;28;20700;-78
2021/04/30 04:22:07;;;;;;;13.63;12.43;;;8.00;99.90;;;;;;5077748;28;20206;-78
2021/04/30 04:24:33;;;;;;;13.17;11.97;;;7.90;99.90;;;;;;5080330;28;20681;-78
2021/04/30 04:26:59;;;;;;;13.43;12.23;;;7.90;99.90;;;;;;5078333;28;20206;-78
2021/04/30 04:29:25;;;;;;;13.13;11.87;;;8.00;99.90;;;;;;5078422;28;20207;-78
2021/04/30 04:31:52;;;;;;;13.47;12.33;;;8.00;99.90;;;;;;5075547;28;20264;-78
2021/04/30 04:34:18;;;;;;;12.93;11.80;;;8.10;99.90;;;;;;5077450;28;20195;-78
2021/04/30 04:36:44;;;;;;;13.43;12.23;;;8.10;99.90;;;;;;5080242;28;20231;-78
2021/04/30 04:39:10;;;;;;;14.10;12.90;;;8.00;99.90;;;;;;5079999;28;20950;-78
2021/04/30 04:41:37;;;;;;;13.33;12.13;;;8.00;99.90;;;;;;5079873;28;20203;-78
2021/04/30 04:44:03;;;;;;;13.10;11.90;;;8.00;99.90;;;;;;5075910;28;20215;-78
2021/04/30 04:46:29;;;;;;;13.63;12.33;;;8.00;99.90;;;;;;5078667;28;20203;-78
2021/04/30 04:48:56;;;;;;;13.60;12.50;;;7.90;99.90;;;;;;5082459;28;20559;-78
2021/04/30 04:51:22;;;;;;;13.13;11.93;;;8.00;99.90;;;;;;5081195;28;20231;-79
2021/04/30 04:53:49;;;;;;;13.03;11.93;;;8.10;99.90;;;;;;5078655;28;20196;-78
2021/04/30 04:56:15;;;;;;;13.60;12.20;;;8.00;99.90;;;;;;5080625;28;20261;-78
2021/04/30 04:58:41;;;;;;;13.07;11.97;;;8.00;99.90;;;;;;5079466;28;20279;-79
2021/04/30 05:01:07;;;;;;;14.33;12.93;;;8.10;99.90;;;;;;5073646;28;20253;-78
2021/04/30 05:03:33;;;;;;;13.20;12.10;;;8.10;99.90;;;;;;5078435;28;20207;-78
2021/04/30 05:06:01;;;;;;;13.13;11.90;;;8.20;99.90;;;;;;5077681;28;20206;-79
2021/04/30 05:08:27;;;;;;;12.43;11.33;;;8.10;99.90;;;;;;5075448;28;20206;-78
2021/04/30 05:10:53;;;;;;;13.17;11.87;;;8.10;99.90;;;;;;5078414;28;20215;-77
2021/04/30 05:13:19;;;;;;;14.03;12.33;;;8.10;99.90;;;;;;5079500;28;20199;-78
2021/04/30 05:15:45;;;;;;;13.63;12.23;;;8.00;99.90;;;;;;5070237;28;20200;-77
2021/04/30 05:18:11;;;;;;;12.57;11.47;;;8.10;99.90;;;;;;5077014;28;20662;-77
2021/04/30 05:20:37;;;;;;;12.63;11.63;;;8.10;99.90;;;;;;5076556;28;20258;-78
2021/04/30 05:23:04;;;;;;;13.27;12.03;;;8.10;99.90;;;;;;5076860;28;20203;-77
2021/04/30 05:25:30;;;;;;;12.97;11.67;;;8.10;99.90;;;;;;5076958;28;20207;-74
2021/04/30 05:27:57;;;;;;;12.97;11.83;;;8.00;99.90;;;;;;5072536;28;20203;-73
2021/04/30 05:30:23;;;;;;;13.10;11.80;;;8.20;99.90;;;;;;5073102;28;20943;-77
2021/04/30 05:32:52;;;;;;;12.23;11.07;;;8.30;99.90;;;;;;5077156;28;20677;-77
2021/04/30 05:35:18;;;;;;;12.70;11.50;;;8.30;99.90;;;;;;5077169;28;20234;-77
2021/04/30 05:37:44;;;;;;;12.57;11.47;;;8.30;99.90;;;;;;5078134;28;20214;-77
2021/04/30 05:40:13;;;;;;;12.70;11.50;;;8.40;99.90;;;;;;5072900;28;20227;-77
2021/04/30 05:42:39;;;;;;;11.53;10.53;;;8.40;99.90;;;;;;5073254;28;20223;-77
2021/04/30 05:45:06;;;;;;;12.50;11.20;;;8.40;99.90;;;;;;5070888;28;20260;-72
2021/04/30 05:47:33;;;;;;;12.03;11.03;;;8.40;99.90;;;;;;5068406;28;20207;-73
2021/04/30 05:49:59;;;;;;;12.13;11.00;;;8.50;99.90;;;;;;5068498;28;20237;-78
2021/04/30 05:52:25;;;;;;;11.87;10.93;;;8.50;99.90;;;;;;5068515;28;20215;-78
2021/04/30 05:54:51;;;;;;;11.93;10.83;;;8.40;99.90;;;;;;5068577;28;20218;-78
2021/04/30 05:57:18;;;;;;;11.63;10.63;;;8.40;99.90;;;;;;5068562;28;20207;-78
2021/04/30 05:59:44;;;;;;;12.07;10.97;;;8.40;99.90;;;;;;5064001;28;20228;-77
2021/04/30 06:02:10;;;;;;;12.33;11.23;;;8.40;99.90;;;;;;5072107;28;20259;-81
2021/04/30 06:04:39;;;;;;;11.00;10.00;;;8.40;99.90;;;;;;5059802;28;20218;-80
2021/04/30 06:07:05;;;;;;;11.30;10.30;;;8.40;99.90;;;;;;5068921;28;20199;-80
2021/04/30 06:09:31;;;;;;;11.23;10.23;;;8.30;99.90;;;;;;5077085;28;20203;-81
2021/04/30 06:11:58;;;;;;;10.33;9.43;;;8.40;99.90;;;;;;5082599;28;20203;-81
2021/04/30 06:14:30;;;;;;;9.47;8.73;;;8.50;99.90;;;;;;5076964;28;20222;-80
2021/04/30 06:16:56;;;;;;;8.97;8.27;;;8.50;99.90;;;;;;5075544;28;20227;-81
2021/04/30 06:19:23;;;;;;;9.27;8.47;;;8.50;99.90;;;;;;5073991;28;20219;-80
2021/04/30 06:21:49;;;;;;;7.47;6.97;;;8.60;99.90;;;;;;5060223;28;20640;-82
2021/04/30 06:24:15;;;;;;;8.00;7.40;;;8.60;99.90;;;;;;5064380;28;20231;-81
2021/04/30 06:26:41;;;;;;;7.63;7.03;;;8.50;99.90;;;;;;5074945;28;20661;-82
2021/04/30 06:29:09;;;;;;;7.27;6.77;;;8.50;99.90;;;;;;5085247;28;20199;-81
2021/04/30 06:31:36;;;;;;;7.43;6.73;;;8.50;99.90;;;;;;5088717;28;20217;-82
2021/04/30 06:34:03;;;;;;;6.47;5.97;;;8.60;99.90;;;;;;5089014;28;20549;-81
2021/04/30 06:36:29;;;;;;;5.43;5.10;;;8.70;99.90;;;;;;5088452;28;20214;-81
2021/04/30 06:38:55;;;;;;;4.57;4.27;;;8.70;99.90;;;;;;5088254;28;20270;-82
2021/04/30 06:41:22;;;;;;;4.53;4.13;;;8.70;99.90;;;;;;5088616;28;20210;-81
2021/04/30 06:43:48;;;;;;;4.60;4.20;;;8.80;99.90;;;;;;5088736;28;20631;-81
2021/04/30 06:46:14;;;;;;;4.10;3.80;;;9.00;99.90;;;;;;5075607;28;20658;-82
2021/04/30 06:48:42;;;;;;;4.30;3.90;;;9.10;99.90;;;;;;5048423;28;20295;-81
2021/04/30 06:51:08;;;;;;;4.30;3.93;;;9.00;99.90;;;;;;5048553;28;20207;-82
2021/04/30 06:53:34;;;;;;;4.07;3.87;;;9.00;99.90;;;;;;5051921;28;20216;-82
2021/04/30 06:56:00;;;;;;;3.93;3.63;;;9.10;99.90;;;;;;5049102;28;20247;-83
2021/04/30 06:58:26;;;;;;;3.97;3.70;;;9.10;99.90;;;;;;5068355;28;20203;-83
2021/04/30 07:00:52;;;;;;;3.67;3.47;;;9.20;99.90;;;;;;5055325;28;20648;-81
2021/04/30 07:03:19;;;;;;;4.23;3.83;;;9.30;99.90;;;;;;5066718;28;20919;-82
2021/04/30 07:05:46;;;;;;;3.50;3.30;;;9.10;99.90;;;;;;5067696;28;20633;-82
2021/04/30 07:08:12;;;;;;;3.87;3.67;;;9.20;99.90;;;;;;5068289;28;20199;-81
2021/04/30 07:10:38;;;;;;;3.97;3.67;;;9.30;99.90;;;;;;5067874;28;20291;-81
2021/04/30 07:13:10;;;;;;;4.23;3.93;;;9.30;99.90;;;;;;5063293;28;20203;-82
2021/04/30 07:15:37;;;;;;;5.70;4.20;;;9.10;99.90;;;;;;5047542;28;20303;-82
2021/04/30 07:18:03;;;;;;;4.20;3.90;;;9.00;99.90;;;;;;5047437;28;20702;-82
2021/04/30 07:20:31;;;;;;;4.80;4.50;;;9.00;99.90;;;;;;5048021;28;20717;-82
2021/04/30 07:22:58;;;;;;;4.20;3.93;;;9.00;99.90;;;;;;5047636;28;20667;-82
2021/04/30 07:25:24;;;;;;;4.50;4.20;;;9.00;99.90;;;;;;5051901;28;20208;-82
2021/04/30 07:27:50;;;;;;;4.40;4.07;;;9.00;99.90;;;;;;5051059;28;20761;-81
2021/04/30 07:30:18;;;;;;;4.10;3.80;;;9.00;99.90;;;;;;5067454;28;20199;-81
2021/04/30 07:32:44;;;;;;;3.77;3.57;;;8.90;99.90;;;;;;5081951;28;20199;-82
2021/04/30 07:35:11;;;;;;;3.33;3.13;;;9.10;99.90;;;;;;5072754;28;20248;-82
2021/04/30 07:37:37;;;;;;;3.43;3.20;;;9.20;99.90;;;;;;5086899;28;20215;-82
2021/04/30 07:40:06;;;;;;;4.03;3.73;;;9.30;99.90;;;;;;5087534;28;20309;-81
2021/04/30 07:42:33;;;;;;;3.27;3.07;;;9.50;99.90;;;;;;5075705;28;20226;-80
2021/04/30 07:44:59;;;;;;;3.30;3.10;;;9.50;99.90;;;;;;5071381;28;20214;-81
2021/04/30 07:47:26;;;;;;;4.27;3.50;;;9.50;99.90;;;;;;5071499;28;20654;-82
2021/04/30 07:49:52;;;;;;;3.60;3.40;;;9.60;99.90;;;;;;5071516;28;20208;-81
2021/04/30 07:52:18;;;;;;;3.90;3.60;;;9.60;99.90;;;;;;5070698;28;20222;-81
2021/04/30 07:54:45;;;;;;;3.80;3.50;;;9.40;99.90;;;;;;5069776;28;20203;-83
2021/04/30 07:57:12;;;;;;;3.80;3.60;;;9.40;99.90;;;;;;5055500;28;20200;-84
2021/04/30 07:59:38;;;;;;;3.70;3.40;;;9.60;99.90;;;;;;5071224;28;20296;-83
2021/04/30 08:02:04;;;;;;;3.80;3.60;;;9.60;99.90;;;;;;5051235;28;20263;-80
2021/04/30 08:04:31;;;;;;;3.83;3.50;;;9.60;99.90;;;;;;5050692;28;20662;-79
2021/04/30 08:06:57;;;;;;;3.80;3.40;;;9.60;99.90;;;;;;5050886;28;20277;-76
2021/04/30 08:09:23;;;;;;;3.53;3.33;;;9.50;99.90;;;;;;5069476;28;20243;-77
2021/04/30 08:11:49;;;;;;;3.30;2.80;;;9.50;99.90;;;;;;5070086;28;20614;-80
2021/04/30 08:14:17;;;;;;;3.10;2.80;;;9.60;99.90;;;;;;5070958;28;20208;-76
2021/04/30 08:16:43;;;;;;;3.00;2.80;;;9.40;99.90;;;;;;5069982;28;20666;-78
2021/04/30 08:19:09;;;;;;;2.70;2.50;;;9.50;99.90;;;;;;5070376;28;20227;-77
2021/04/30 08:21:36;;;;;;;3.13;2.73;;;9.60;99.90;;;;;;5070590;28;20214;-76
2021/04/30 08:24:03;;;;;;;3.10;2.90;;;9.70;99.90;;;;;;5070233;28;20215;-77
2021/04/30 08:26:29;;;;;;;2.50;2.40;;;9.80;99.90;;;;;;5067127;28;20251;-79
2021/04/30 08:28:56;;;;;;;2.90;2.70;;;9.80;99.90;;;;;;5062209;28;20209;-77
2021/04/30 08:31:27;;;;;;;3.00;2.80;;;9.80;99.90;;;;;;5063450;28;20210;-77
2021/04/30 08:33:53;;;;;;;2.90;2.63;;;9.90;99.90;;;;;;5070432;28;20198;-77
2021/04/30 08:36:21;;;;;;;4.73;3.00;;;10.00;99.90;;;;;;5070537;28;20218;-77
2021/04/30 08:38:47;;;;;;;3.20;3.00;;;10.00;99.90;;;;;;5070063;28;20268;-77
2021/04/30 08:41:14;;;;;;;3.03;2.83;;;10.00;99.90;;;;;;5070402;28;20215;-77
2021/04/30 08:43:41;;;;;;;3.10;2.90;;;10.00;99.90;;;;;;5069974;28;20227;-77
2021/04/30 08:46:11;;;;;;;3.47;3.17;;;10.00;99.90;;;;;;5070016;28;20615;-77
2021/04/30 08:48:42;;;;;;;3.77;3.37;;;10.10;99.90;;;;;;5070057;28;20298;-78
2021/04/30 08:51:08;;;;;;;3.13;2.93;;;10.10;99.90;;;;;;5070302;28;20188;-78
2021/04/30 08:53:34;;;;;;;3.20;3.00;;;10.10;99.90;;;;;;5070042;28;20226;-78
2021/04/30 08:56:03;;;;;;;3.10;2.90;;;10.10;99.90;;;;;;5069341;28;20770;-78
2021/04/30 08:58:30;;;;;;;3.27;3.07;;;10.10;99.90;;;;;;5069919;28;20231;-77
2021/04/30 09:00:57;;;;;;;2.57;2.37;;;10.20;99.90;;;;;;5069502;28;20235;-78
2021/04/30 09:03:23;;;;;;;3.17;2.97;;;10.30;99.90;;;;;;5069973;28;20272;-78
2021/04/30 09:05:55;;;;;;;2.53;2.43;;;10.30;99.90;;;;;;5069692;28;20223;-77
2021/04/30 09:08:21;;;;;;;4.83;2.73;;;10.30;99.90;;;;;;5069993;28;20273;-77
2021/04/30 09:10:49;;;;;;;2.73;2.53;;;10.40;99.90;;;;;;5069383;28;20308;-78
2021/04/30 09:13:17;;;;;;;3.23;2.93;;;10.40;99.90;;;;;;5069051;28;20207;-78
2021/04/30 09:15:45;;;;;;;3.67;2.40;;;10.50;99.90;;;;;;5067787;28;20218;-78
2021/04/30 09:18:17;;;;;;;2.80;2.70;;;10.60;99.90;;;;;;5057745;28;20674;-79
2021/04/30 09:20:45;;;;;;;3.00;2.80;;;10.70;99.90;;;;;;5066801;28;20238;-82
2021/04/30 09:23:31;;;;;;;2.60;2.40;;;10.70;99.90;;;;;;5067290;28;20702;-81
2021/04/30 09:25:58;;;;;;;3.00;2.80;;;10.70;99.90;;;;;;5066694;28;20976;-79
2021/04/30 09:28:24;;;;;;;3.00;2.80;;;10.70;99.90;;;;;;5066784;28;20222;-79
2021/04/30 09:30:51;;;;;;;3.00;2.80;;;10.60;99.90;;;;;;5067224;28;20207;-79
2021/04/30 09:33:18;;;;;;;2.90;2.70;;;10.70;99.90;;;;;;5066654;28;20735;-76
2021/04/30 09:35:46;;;;;;;4.30;4.00;;;10.60;99.90;;;;;;5066482;28;20210;-79
2021/04/30 09:38:20;;;;;;;2.80;2.60;;;10.50;99.90;;;;;;5066078;28;20253;-79
2021/04/30 09:40:49;;;;;;;3.53;2.80;;;10.60;99.90;;;;;;5046792;28;20256;-78
2021/04/30 09:43:16;;;;;;;3.87;2.80;;;10.60;99.90;;;;;;5047319;28;20298;-77
2021/04/30 09:45:45;;;;;;;3.00;2.80;;;10.80;99.90;;;;;;5046876;28;20224;-77
2021/04/30 09:48:12;;;;;;;2.87;2.67;;;10.80;99.90;;;;;;5047632;28;20208;-78
2021/04/30 09:50:40;;;;;;;3.20;3.00;;;10.90;99.90;;;;;;5047272;28;20208;-77
2021/04/30 09:53:09;;;;;;;3.43;3.20;;;10.90;99.90;;;;;;5046522;28;20262;-78
2021/04/30 09:55:43;;;;;;;3.10;2.90;;;11.00;99.90;;;;;;5046313;28;20776;-78
2021/04/30 09:58:15;;;;;;;3.23;3.03;;;11.00;99.90;;;;;;5046248;28;20204;-78
2021/04/30 10:00:41;;;;;;;3.60;3.30;;;11.00;99.90;;;;;;5046396;28;20232;-77
2021/04/30 10:03:18;;;;;;;3.10;2.90;;;10.90;99.90;;;;;;5046833;28;20215;-78
2021/04/30 10:06:04;;;;;;;4.00;3.57;;;11.00;99.90;;;;;;5049495;28;20187;-79
2021/04/30 10:08:31;;;;;;;3.80;3.47;;;11.00;99.90;;;;;;5046815;28;20227;-77
2021/04/30 10:10:57;;;;;;;3.50;3.30;;;11.00;99.90;;;;;;5046295;28;20261;-79
2021/04/30 10:13:24;;;;;;;3.30;3.10;;;10.90;99.90;;;;;;5046413;28;20210;-79
2021/04/30 10:15:50;;;;;;;3.30;3.10;;;10.60;99.90;;;;;;5045967;28;20220;-74
2021/04/30 10:18:18;;;;;;;3.27;3.03;;;10.60;99.90;;;;;;5045694;28;20240;-76
2021/04/30 10:20:44;;;;;;;3.27;2.97;;;10.70;99.90;;;;;;5046370;28;20227;-79
2021/04/30 10:23:14;;;;;;;4.70;4.30;;;10.80;99.90;;;;;;5046724;28;20295;-79
2021/04/30 10:25:42;;;;;;;3.50;3.30;;;10.80;99.90;;;;;;5047334;28;20563;-79
2021/04/30 10:28:10;;;;;;;4.93;4.13;;;10.90;99.90;;;;;;5047715;28;20242;-79
2021/04/30 10:30:41;;;;;;;4.07;3.77;;;10.70;99.90;;;;;;5047272;28;20215;-79
2021/04/30 10:33:10;;;;;;;3.30;3.10;;;10.70;99.90;;;;;;5047986;28;20285;-78
2021/04/30 10:35:45;;;;;;;3.60;3.40;;;10.50;99.90;;;;;;5066814;28;20238;-78
2021/04/30 10:38:17;;;;;;;11.67;3.93;;;10.50;99.90;;;;;;5066445;28;20683;-78
2021/04/30 10:40:58;;;;;;;3.70;3.50;;;10.60;99.90;;;;;;5066282;28;20227;-78
2021/04/30 10:43:24;;;;;;;3.90;3.60;;;10.60;99.90;;;;;;5066325;28;20272;-79
2021/04/30 10:46:00;;;;;;;4.40;4.10;;;10.70;99.90;;;;;;5060681;28;20204;-80
2021/04/30 10:48:26;;;;;;;3.87;3.40;;;10.90;99.90;;;;;;5045365;28;20576;-79
2021/04/30 10:50:53;;;;;;;5.43;3.13;;;11.00;99.90;;;;;;5045540;28;20670;-79
2021/04/30 10:53:24;;;;;;;4.43;3.30;;;11.20;99.90;;;;;;5051702;28;20202;-79
2021/04/30 10:55:51;;;;;;;3.00;2.80;;;11.50;99.90;;;;;;5045785;28;20212;-79
2021/04/30 10:58:34;;;;;;;3.10;3.00;;;11.30;99.90;;;;;;5046323;28;20208;-78
2021/04/30 11:01:23;;;;;;;5.37;3.10;;;11.00;99.90;;;;;;5045600;28;20269;-79
2021/04/30 11:04:15;;;;;;;2.53;2.43;;;11.10;99.90;;;;;;5046076;28;20235;-79
2021/04/30 11:06:43;;;;;;;2.90;2.70;;;11.10;99.90;;;;;;5046508;28;20257;-79
2021/04/30 11:09:15;;;;;;;3.13;2.93;;;11.30;99.90;;;;;;5049788;28;20220;-78
2021/04/30 11:11:43;;;;;;;2.90;2.80;;;11.20;99.90;;;;;;5050693;28;20571;-79
2021/04/30 11:14:27;;;;;;;3.33;3.13;;;11.30;99.90;;;;;;5057918;28;20206;-77
2021/04/30 11:16:56;;;;;;;4.00;3.60;;;11.50;99.90;;;;;;5048444;28;20706;-79
2021/04/30 11:19:23;;;;;;;3.70;3.47;;;11.60;99.90;;;;;;5049143;28;20220;-78
2021/04/30 11:21:52;;;;;;;3.90;3.70;;;11.60;99.90;;;;;;5049618;28;20223;-78
2021/04/30 11:24:35;;;;;;;3.93;3.73;;;11.50;99.90;;;;;;5049232;28;20215;-74
2021/04/30 11:27:33;;;;;;;4.80;4.40;;;11.40;99.90;;;;;;5049205;28;20610;-77
2021/04/30 11:30:20;;;;;;;3.83;3.53;;;11.40;99.90;;;;;;5049608;28;20201;-77
2021/04/30 11:32:52;;;;;;;4.40;4.10;;;11.40;99.90;;;;;;5049108;28;20199;-77
2021/04/30 11:35:18;;;;;;;4.57;4.27;;;11.10;99.90;;;;;;5049181;28;20212;-77
2021/04/30 11:37:46;;;;;;;4.43;4.03;;;11.00;99.90;;;;;;5049306;28;20316;-77
2021/04/30 11:40:13;;;;;;;5.07;4.67;;;10.80;99.90;;;;;;5048823;28;20309;-77
2021/04/30 11:42:40;;;;;;;5.13;4.67;;;10.80;99.90;;;;;;5049143;28;20263;-78
2021/04/30 11:45:09;;;;;;;4.23;3.93;;;10.90;99.90;;;;;;5049860;28;20208;-77
2021/04/30 11:47:37;;;;;;;4.30;4.00;;;11.00;99.90;;;;;;5049597;28;20230;-77
2021/04/30 11:50:09;;;;;;;4.13;3.93;;;11.10;99.90;;;;;;5049369;28;20298;-77
2021/04/30 11:52:38;;;;;;;4.40;4.10;;;11.20;99.90;;;;;;5050119;28;20200;-77
2021/04/30 11:55:07;;;;;;;4.57;4.17;;;11.40;99.90;;;;;;5049442;28;20207;-77
2021/04/30 11:57:33;;;;;;;4.60;4.30;;;11.30;99.90;;;;;;5048914;28;20208;-77
2021/04/30 11:59:59;;;;;;;5.10;4.70;;;11.20;99.90;;;;;;5048917;28;20232;-77
2021/04/30 12:02:28;;;;;;;5.10;4.70;;;11.30;99.90;;;;;;5049300;28;20663;-77
2021/04/30 12:04:58;;;;;;;4.67;4.27;;;11.10;99.90;;;;;;5048945;28;20232;-78
2021/04/30 12:07:26;;;;;;;4.50;4.20;;;11.10;99.90;;;;;;5049314;28;20211;-78
2021/04/30 12:09:53;;;;;;;4.87;4.57;;;11.10;99.90;;;;;;5048686;28;20619;-80
2021/04/30 12:12:22;;;;;;;4.67;4.27;;;11.00;99.90;;;;;;5051542;28;20207;-78
2021/04/30 12:14:54;;;;;;;5.33;4.83;;;11.00;99.90;;;;;;5070025;28;20215;-77
2021/04/30 12:17:35;;;;;;;5.40;5.00;;;11.00;99.90;;;;;;5070338;28;20318;-77
2021/04/30 12:20:13;;;;;;;5.10;4.80;;;11.00;99.90;;;;;;5069002;28;20616;-78
2021/04/30 12:22:54;;;;;;;5.50;5.10;;;11.00;99.90;;;;;;5070300;28;20278;-77
2021/04/30 12:25:23;;;;;;;6.03;5.50;;;11.00;99.90;;;;;;5070557;28;20191;-78
2021/04/30 12:27:50;;;;;;;5.80;5.40;;;10.90;99.90;;;;;;5070321;28;20218;-79
2021/04/30 12:30:30;;;;;;;6.23;5.73;;;10.90;99.90;;;;;;5069910;28;20215;-78
2021/04/30 12:32:58;;;;;;;6.33;5.83;;;10.90;99.90;;;;;;5070132;28;20570;-78
2021/04/30 12:35:24;;;;;;;6.27;5.80;;;10.90;99.90;;;;;;5070348;28;20229;-78
2021/04/30 12:37:51;;;;;;;6.73;6.13;;;10.90;99.90;;;;;;5070214;28;20214;-78
2021/04/30 12:40:24;;;;;;;6.70;6.07;;;10.80;99.90;;;;;;5070434;28;20226;-78
2021/04/30 12:42:52;;;;;;;7.10;6.50;;;10.80;99.90;;;;;;5070019;28;20223;-78
2021/04/30 12:45:19;;;;;;;6.70;6.20;;;10.80;99.90;;;;;;5069884;28;20253;-83
2021/04/30 12:47:47;;;;;;;7.20;6.47;;;10.80;99.90;;;;;;5065474;28;20272;-78
2021/04/30 12:50:18;;;;;;;7.37;6.67;;;10.80;99.90;;;;;;5063794;28;20238;-78